sensor_id;sensor_type;location;lat;lon;timestamp;P1;durP1;ratioP1;P2;durP2;ratioP2
37047;SDS011;23227;48.780;9.210;2024-01-30T00:01:42;5.88;;;2.72;;
37047;SDS011;23227;48.780;9.210;2024-01-30T00:04:46;8.00;;;2.78;;
37047;SDS011;23227;48.780;9.210;2024-01-30T00:07:50;5.03;;;2.20;;
37047;SDS011;23227;48.780;9.210;2024-01-30T00:10:52;4.82;;;2.40;;
37047;SDS011;23227;48.780;9.210;2024-01-30T00:13:55;6.85;;;2.38;;
37047;SDS011;23227;48.780;9.210;2024-01-30T00:16:58;5.83;;;2.63;;
37047;SDS011;23227;48.780;9.210;2024-01-30T00:20:03;5.28;;;2.33;;
37047;SDS011;23227;48.780;9.210;2024-01-30T00:23:07;6.40;;;2.60;;
37047;SDS011;23227;48.780;9.210;2024-01-30T00:26:10;4.90;;;2.13;;
37047;SDS011;23227;48.780;9.210;2024-01-30T00:29:12;4.25;;;2.33;;
37047;SDS011;23227;48.780;9.210;2024-01-30T00:32:20;3.27;;;2.10;;
37047;SDS011;23227;48.780;9.210;2024-01-30T00:35:25;6.23;;;2.40;;
37047;SDS011;23227;48.780;9.210;2024-01-30T00:38:28;5.77;;;2.20;;
37047;SDS011;23227;48.780;9.210;2024-01-30T00:41:31;4.15;;;2.00;;
37047;SDS011;23227;48.780;9.210;2024-01-30T00:44:34;6.07;;;2.42;;
37047;SDS011;23227;48.780;9.210;2024-01-30T00:47:38;3.93;;;2.00;;
37047;SDS011;23227;48.780;9.210;2024-01-30T00:50:42;5.28;;;2.63;;
37047;SDS011;23227;48.780;9.210;2024-01-30T00:53:45;5.67;;;2.70;;
37047;SDS011;23227;48.780;9.210;2024-01-30T00:56:48;3.63;;;1.88;;
37047;SDS011;23227;48.780;9.210;2024-01-30T00:59:50;3.75;;;2.05;;
37047;SDS011;23227;48.780;9.210;2024-01-30T01:02:53;4.00;;;2.13;;
37047;SDS011;23227;48.780;9.210;2024-01-30T01:05:57;4.10;;;2.22;;
37047;SDS011;23227;48.780;9.210;2024-01-30T01:09:00;4.30;;;2.27;;
37047;SDS011;23227;48.780;9.210;2024-01-30T01:12:05;4.37;;;2.13;;
37047;SDS011;23227;48.780;9.210;2024-01-30T01:18:11;4.50;;;2.30;;
37047;SDS011;23227;48.780;9.210;2024-01-30T01:21:15;4.78;;;1.98;;
37047;SDS011;23227;48.780;9.210;2024-01-30T01:24:18;4.20;;;1.80;;
37047;SDS011;23227;48.780;9.210;2024-01-30T01:27:21;4.72;;;2.22;;
37047;SDS011;23227;48.780;9.210;2024-01-30T01:30:23;4.38;;;2.05;;
37047;SDS011;23227;48.780;9.210;2024-01-30T01:33:27;4.73;;;2.13;;
37047;SDS011;23227;48.780;9.210;2024-01-30T01:36:32;3.30;;;2.20;;
37047;SDS011;23227;48.780;9.210;2024-01-30T01:39:34;2.90;;;1.90;;
37047;SDS011;23227;48.780;9.210;2024-01-30T01:42:37;2.80;;;1.52;;
37047;SDS011;23227;48.780;9.210;2024-01-30T01:45:40;5.65;;;2.40;;
37047;SDS011;23227;48.780;9.210;2024-01-30T01:48:43;4.35;;;1.95;;
37047;SDS011;23227;48.780;9.210;2024-01-30T01:51:48;3.97;;;2.03;;
37047;SDS011;23227;48.780;9.210;2024-01-30T01:54:50;5.07;;;2.43;;
37047;SDS011;23227;48.780;9.210;2024-01-30T01:57:53;4.30;;;2.08;;
37047;SDS011;23227;48.780;9.210;2024-01-30T02:00:56;3.33;;;2.30;;
37047;SDS011;23227;48.780;9.210;2024-01-30T02:07:03;3.97;;;1.87;;
37047;SDS011;23227;48.780;9.210;2024-01-30T02:10:07;3.23;;;1.90;;
37047;SDS011;23227;48.780;9.210;2024-01-30T02:13:10;5.10;;;2.00;;
37047;SDS011;23227;48.780;9.210;2024-01-30T02:16:13;4.07;;;1.85;;
37047;SDS011;23227;48.780;9.210;2024-01-30T02:19:15;4.93;;;2.10;;
37047;SDS011;23227;48.780;9.210;2024-01-30T02:22:20;3.30;;;1.70;;
37047;SDS011;23227;48.780;9.210;2024-01-30T02:25:29;2.83;;;1.90;;
37047;SDS011;23227;48.780;9.210;2024-01-30T02:28:33;3.10;;;2.27;;
37047;SDS011;23227;48.780;9.210;2024-01-30T02:31:36;2.85;;;1.63;;
37047;SDS011;23227;48.780;9.210;2024-01-30T02:34:38;2.67;;;1.60;;
37047;SDS011;23227;48.780;9.210;2024-01-30T02:37:42;3.50;;;1.85;;
37047;SDS011;23227;48.780;9.210;2024-01-30T02:40:45;4.33;;;2.13;;
37047;SDS011;23227;48.780;9.210;2024-01-30T02:43:48;4.88;;;2.15;;
37047;SDS011;23227;48.780;9.210;2024-01-30T02:46:50;4.90;;;2.05;;
37047;SDS011;23227;48.780;9.210;2024-01-30T02:49:55;3.07;;;1.97;;
37047;SDS011;23227;48.780;9.210;2024-01-30T02:52:59;2.38;;;1.60;;
37047;SDS011;23227;48.780;9.210;2024-01-30T02:56:02;3.00;;;1.70;;
37047;SDS011;23227;48.780;9.210;2024-01-30T02:59:05;3.08;;;1.77;;
37047;SDS011;23227;48.780;9.210;2024-01-30T03:02:07;3.33;;;1.77;;
37047;SDS011;23227;48.780;9.210;2024-01-30T03:05:10;3.20;;;2.00;;
37047;SDS011;23227;48.780;9.210;2024-01-30T03:08:14;3.03;;;2.05;;
37047;SDS011;23227;48.780;9.210;2024-01-30T03:11:17;3.20;;;1.83;;
37047;SDS011;23227;48.780;9.210;2024-01-30T03:14:20;4.07;;;1.80;;
37047;SDS011;23227;48.780;9.210;2024-01-30T03:17:23;3.30;;;1.75;;
37047;SDS011;23227;48.780;9.210;2024-01-30T03:20:26;3.33;;;1.58;;
37047;SDS011;23227;48.780;9.210;2024-01-30T03:23:30;2.08;;;1.40;;
37047;SDS011;23227;48.780;9.210;2024-01-30T03:26:33;3.60;;;1.67;;
37047;SDS011;23227;48.780;9.210;2024-01-30T03:29:36;2.47;;;1.63;;
37047;SDS011;23227;48.780;9.210;2024-01-30T03:32:38;2.42;;;1.55;;
37047;SDS011;23227;48.780;9.210;2024-01-30T03:35:41;3.67;;;1.85;;
37047;SDS011;23227;48.780;9.210;2024-01-30T03:38:45;2.90;;;1.67;;
37047;SDS011;23227;48.780;9.210;2024-01-30T03:41:48;2.67;;;1.93;;
37047;SDS011;23227;48.780;9.210;2024-01-30T03:44:51;3.33;;;1.60;;
37047;SDS011;23227;48.780;9.210;2024-01-30T03:47:54;3.57;;;1.90;;
37047;SDS011;23227;48.780;9.210;2024-01-30T03:50:57;3.20;;;1.80;;
37047;SDS011;23227;48.780;9.210;2024-01-30T03:54:01;3.58;;;1.55;;
37047;SDS011;23227;48.780;9.210;2024-01-30T03:57:04;2.30;;;1.40;;
37047;SDS011;23227;48.780;9.210;2024-01-30T04:00:07;3.45;;;1.60;;
37047;SDS011;23227;48.780;9.210;2024-01-30T04:03:11;2.00;;;1.60;;
37047;SDS011;23227;48.780;9.210;2024-01-30T04:06:13;2.35;;;1.63;;
37047;SDS011;23227;48.780;9.210;2024-01-30T04:09:17;2.75;;;1.58;;
37047;SDS011;23227;48.780;9.210;2024-01-30T04:12:20;1.70;;;1.23;;
37047;SDS011;23227;48.780;9.210;2024-01-30T04:15:23;1.92;;;1.30;;
37047;SDS011;23227;48.780;9.210;2024-01-30T04:18:25;2.13;;;1.45;;
37047;SDS011;23227;48.780;9.210;2024-01-30T04:21:28;2.83;;;1.70;;
37047;SDS011;23227;48.780;9.210;2024-01-30T04:24:32;2.97;;;1.80;;
37047;SDS011;23227;48.780;9.210;2024-01-30T04:27:34;1.73;;;1.50;;
37047;SDS011;23227;48.780;9.210;2024-01-30T04:30:37;2.95;;;1.98;;
37047;SDS011;23227;48.780;9.210;2024-01-30T04:33:40;2.38;;;1.52;;
37047;SDS011;23227;48.780;9.210;2024-01-30T04:36:43;2.88;;;1.65;;
37047;SDS011;23227;48.780;9.210;2024-01-30T04:39:48;1.67;;;1.50;;
37047;SDS011;23227;48.780;9.210;2024-01-30T04:42:50;2.37;;;1.63;;
37047;SDS011;23227;48.780;9.210;2024-01-30T04:45:53;2.20;;;1.40;;
37047;SDS011;23227;48.780;9.210;2024-01-30T04:48:56;3.22;;;1.48;;
37047;SDS011;23227;48.780;9.210;2024-01-30T04:51:58;2.60;;;1.42;;
37047;SDS011;23227;48.780;9.210;2024-01-30T04:55:03;3.25;;;1.45;;
37047;SDS011;23227;48.780;9.210;2024-01-30T04:58:06;1.90;;;1.20;;
37047;SDS011;23227;48.780;9.210;2024-01-30T05:01:09;2.80;;;1.60;;
37047;SDS011;23227;48.780;9.210;2024-01-30T05:04:11;3.85;;;1.85;;
37047;SDS011;23227;48.780;9.210;2024-01-30T05:07:17;4.37;;;3.13;;
37047;SDS011;23227;48.780;9.210;2024-01-30T05:10:21;6.88;;;2.70;;
37047;SDS011;23227;48.780;9.210;2024-01-30T05:13:24;6.27;;;3.27;;
37047;SDS011;23227;48.780;9.210;2024-01-30T05:16:27;6.95;;;2.90;;
37047;SDS011;23227;48.780;9.210;2024-01-30T05:19:29;11.57;;;2.72;;
37047;SDS011;23227;48.780;9.210;2024-01-30T05:22:32;5.05;;;2.70;;
37047;SDS011;23227;48.780;9.210;2024-01-30T05:25:36;2.50;;;1.92;;
37047;SDS011;23227;48.780;9.210;2024-01-30T05:28:39;3.50;;;2.30;;
37047;SDS011;23227;48.780;9.210;2024-01-30T05:31:41;4.20;;;2.40;;
37047;SDS011;23227;48.780;9.210;2024-01-30T05:34:44;7.55;;;2.67;;
37047;SDS011;23227;48.780;9.210;2024-01-30T05:37:47;6.22;;;2.30;;
37047;SDS011;23227;48.780;9.210;2024-01-30T05:40:51;4.43;;;2.30;;
37047;SDS011;23227;48.780;9.210;2024-01-30T05:43:54;4.43;;;2.33;;
37047;SDS011;23227;48.780;9.210;2024-01-30T05:46:56;3.70;;;2.33;;
37047;SDS011;23227;48.780;9.210;2024-01-30T05:49:59;4.78;;;2.22;;
37047;SDS011;23227;48.780;9.210;2024-01-30T05:53:02;3.17;;;2.45;;
37047;SDS011;23227;48.780;9.210;2024-01-30T05:56:06;4.97;;;2.60;;
37047;SDS011;23227;48.780;9.210;2024-01-30T05:59:09;7.37;;;2.63;;
37047;SDS011;23227;48.780;9.210;2024-01-30T06:02:12;2.80;;;1.95;;
37047;SDS011;23227;48.780;9.210;2024-01-30T06:05:15;3.13;;;2.17;;
37047;SDS011;23227;48.780;9.210;2024-01-30T06:08:18;6.45;;;2.95;;
37047;SDS011;23227;48.780;9.210;2024-01-30T06:11:22;4.15;;;2.40;;
37047;SDS011;23227;48.780;9.210;2024-01-30T06:14:24;4.33;;;2.03;;
37047;SDS011;23227;48.780;9.210;2024-01-30T06:17:27;3.38;;;2.40;;
37047;SDS011;23227;48.780;9.210;2024-01-30T06:20:30;5.05;;;2.45;;
37047;SDS011;23227;48.780;9.210;2024-01-30T06:23:32;5.75;;;2.42;;
37047;SDS011;23227;48.780;9.210;2024-01-30T06:26:36;5.78;;;2.30;;
37047;SDS011;23227;48.780;9.210;2024-01-30T06:29:39;4.03;;;2.40;;
37047;SDS011;23227;48.780;9.210;2024-01-30T06:32:42;5.03;;;2.08;;
37047;SDS011;23227;48.780;9.210;2024-01-30T06:35:45;5.57;;;2.30;;
37047;SDS011;23227;48.780;9.210;2024-01-30T06:38:47;6.30;;;2.58;;
37047;SDS011;23227;48.780;9.210;2024-01-30T06:41:51;3.53;;;2.40;;
37047;SDS011;23227;48.780;9.210;2024-01-30T06:44:54;4.43;;;2.47;;
37047;SDS011;23227;48.780;9.210;2024-01-30T06:47:57;5.72;;;2.47;;
37047;SDS011;23227;48.780;9.210;2024-01-30T06:50:59;5.25;;;2.53;;
37047;SDS011;23227;48.780;9.210;2024-01-30T06:54:02;4.00;;;2.63;;
37047;SDS011;23227;48.780;9.210;2024-01-30T06:57:06;4.82;;;2.67;;
37047;SDS011;23227;48.780;9.210;2024-01-30T07:00:13;2.60;;;1.90;;
37047;SDS011;23227;48.780;9.210;2024-01-30T07:03:17;5.60;;;2.63;;
37047;SDS011;23227;48.780;9.210;2024-01-30T07:06:19;4.45;;;2.50;;
37047;SDS011;23227;48.780;9.210;2024-01-30T07:09:23;6.00;;;2.60;;
37047;SDS011;23227;48.780;9.210;2024-01-30T07:12:27;5.90;;;2.55;;
37047;SDS011;23227;48.780;9.210;2024-01-30T07:15:30;3.90;;;2.50;;
37047;SDS011;23227;48.780;9.210;2024-01-30T07:18:33;4.15;;;2.40;;
37047;SDS011;23227;48.780;9.210;2024-01-30T07:21:35;4.05;;;2.17;;
37047;SDS011;23227;48.780;9.210;2024-01-30T07:24:41;3.58;;;2.00;;
37047;SDS011;23227;48.780;9.210;2024-01-30T07:27:47;4.60;;;2.50;;
37047;SDS011;23227;48.780;9.210;2024-01-30T07:30:49;6.07;;;2.53;;
37047;SDS011;23227;48.780;9.210;2024-01-30T07:33:52;3.83;;;2.42;;
37047;SDS011;23227;48.780;9.210;2024-01-30T07:36:56;3.13;;;2.03;;
37047;SDS011;23227;48.780;9.210;2024-01-30T07:39:59;3.67;;;2.22;;
37047;SDS011;23227;48.780;9.210;2024-01-30T07:43:03;5.53;;;2.63;;
37047;SDS011;23227;48.780;9.210;2024-01-30T07:46:06;4.07;;;2.53;;
37047;SDS011;23227;48.780;9.210;2024-01-30T07:49:08;4.32;;;2.22;;
37047;SDS011;23227;48.780;9.210;2024-01-30T07:52:11;3.65;;;2.15;;
37047;SDS011;23227;48.780;9.210;2024-01-30T07:55:14;3.83;;;2.17;;
37047;SDS011;23227;48.780;9.210;2024-01-30T07:58:18;3.53;;;2.50;;
37047;SDS011;23227;48.780;9.210;2024-01-30T08:01:21;2.90;;;2.23;;
37047;SDS011;23227;48.780;9.210;2024-01-30T08:04:23;3.05;;;2.05;;
37047;SDS011;23227;48.780;9.210;2024-01-30T08:07:26;3.60;;;2.40;;
37047;SDS011;23227;48.780;9.210;2024-01-30T08:10:31;3.93;;;2.30;;
37047;SDS011;23227;48.780;9.210;2024-01-30T08:13:35;4.45;;;2.45;;
37047;SDS011;23227;48.780;9.210;2024-01-30T08:16:37;5.00;;;1.93;;
37047;SDS011;23227;48.780;9.210;2024-01-30T08:19:40;5.20;;;2.15;;
37047;SDS011;23227;48.780;9.210;2024-01-30T08:22:43;3.53;;;1.95;;
37047;SDS011;23227;48.780;9.210;2024-01-30T08:25:45;3.63;;;2.05;;
37047;SDS011;23227;48.780;9.210;2024-01-30T08:28:49;2.95;;;2.05;;
37047;SDS011;23227;48.780;9.210;2024-01-30T08:31:54;3.60;;;2.30;;
37047;SDS011;23227;48.780;9.210;2024-01-30T08:34:58;3.00;;;1.75;;
37047;SDS011;23227;48.780;9.210;2024-01-30T08:41:04;2.57;;;1.80;;
37047;SDS011;23227;48.780;9.210;2024-01-30T08:44:08;3.90;;;2.58;;
37047;SDS011;23227;48.780;9.210;2024-01-30T08:47:12;4.80;;;2.30;;
37047;SDS011;23227;48.780;9.210;2024-01-30T08:50:15;2.65;;;1.90;;
37047;SDS011;23227;48.780;9.210;2024-01-30T08:53:17;3.45;;;2.25;;
37047;SDS011;23227;48.780;9.210;2024-01-30T08:56:20;2.85;;;1.73;;
37047;SDS011;23227;48.780;9.210;2024-01-30T08:59:24;2.35;;;2.00;;
37047;SDS011;23227;48.780;9.210;2024-01-30T09:02:27;3.60;;;2.10;;
37047;SDS011;23227;48.780;9.210;2024-01-30T09:08:33;2.50;;;1.70;;
37047;SDS011;23227;48.780;9.210;2024-01-30T09:11:35;3.22;;;1.90;;
37047;SDS011;23227;48.780;9.210;2024-01-30T09:14:40;3.27;;;2.13;;
37047;SDS011;23227;48.780;9.210;2024-01-30T09:17:42;2.67;;;1.90;;
37047;SDS011;23227;48.780;9.210;2024-01-30T09:21:09;2.20;;;1.63;;
37047;SDS011;23227;48.780;9.210;2024-01-30T09:24:12;2.63;;;2.10;;
37047;SDS011;23227;48.780;9.210;2024-01-30T09:27:14;4.13;;;1.95;;
37047;SDS011;23227;48.780;9.210;2024-01-30T09:30:18;2.85;;;1.73;;
37047;SDS011;23227;48.780;9.210;2024-01-30T09:33:21;2.70;;;1.80;;
37047;SDS011;23227;48.780;9.210;2024-01-30T09:36:24;3.33;;;2.03;;
37047;SDS011;23227;48.780;9.210;2024-01-30T09:39:27;3.42;;;1.95;;
37047;SDS011;23227;48.780;9.210;2024-01-30T09:42:33;2.65;;;1.88;;
37047;SDS011;23227;48.780;9.210;2024-01-30T09:45:37;2.93;;;1.70;;
37047;SDS011;23227;48.780;9.210;2024-01-30T09:48:41;2.30;;;1.73;;
37047;SDS011;23227;48.780;9.210;2024-01-30T09:54:47;3.00;;;1.80;;
37047;SDS011;23227;48.780;9.210;2024-01-30T09:57:52;2.17;;;1.70;;
37047;SDS011;23227;48.780;9.210;2024-01-30T10:00:55;2.83;;;1.90;;
37047;SDS011;23227;48.780;9.210;2024-01-30T10:04:00;2.50;;;2.03;;
37047;SDS011;23227;48.780;9.210;2024-01-30T10:07:03;2.83;;;1.70;;
37047;SDS011;23227;48.780;9.210;2024-01-30T10:10:06;3.23;;;1.87;;
37047;SDS011;23227;48.780;9.210;2024-01-30T10:16:14;3.08;;;1.95;;
37047;SDS011;23227;48.780;9.210;2024-01-30T10:19:18;3.23;;;2.03;;
37047;SDS011;23227;48.780;9.210;2024-01-30T10:22:20;3.65;;;2.22;;
37047;SDS011;23227;48.780;9.210;2024-01-30T10:25:23;2.25;;;1.40;;
37047;SDS011;23227;48.780;9.210;2024-01-30T10:28:26;1.85;;;1.67;;
37047;SDS011;23227;48.780;9.210;2024-01-30T10:31:32;3.70;;;1.70;;
37047;SDS011;23227;48.780;9.210;2024-01-30T10:34:35;1.87;;;1.50;;
37047;SDS011;23227;48.780;9.210;2024-01-30T10:37:38;2.23;;;1.63;;
37047;SDS011;23227;48.780;9.210;2024-01-30T10:40:41;1.95;;;1.58;;
37047;SDS011;23227;48.780;9.210;2024-01-30T10:43:47;2.80;;;1.77;;
37047;SDS011;23227;48.780;9.210;2024-01-30T10:46:56;3.27;;;2.00;;
37047;SDS011;23227;48.780;9.210;2024-01-30T10:50:03;2.50;;;1.73;;
37047;SDS011;23227;48.780;9.210;2024-01-30T10:53:07;3.33;;;2.03;;
37047;SDS011;23227;48.780;9.210;2024-01-30T10:56:11;4.47;;;1.80;;
37047;SDS011;23227;48.780;9.210;2024-01-30T10:59:14;2.60;;;1.80;;
37047;SDS011;23227;48.780;9.210;2024-01-30T11:02:18;2.50;;;1.88;;
37047;SDS011;23227;48.780;9.210;2024-01-30T11:05:24;3.10;;;1.70;;
37047;SDS011;23227;48.780;9.210;2024-01-30T11:08:33;2.40;;;1.50;;
37047;SDS011;23227;48.780;9.210;2024-01-30T11:11:47;2.38;;;1.50;;
37047;SDS011;23227;48.780;9.210;2024-01-30T11:15:01;3.03;;;1.97;;
37047;SDS011;23227;48.780;9.210;2024-01-30T11:18:07;2.13;;;1.43;;
37047;SDS011;23227;48.780;9.210;2024-01-30T11:21:09;2.40;;;1.53;;
37047;SDS011;23227;48.780;9.210;2024-01-30T11:24:16;2.33;;;1.60;;
37047;SDS011;23227;48.780;9.210;2024-01-30T11:27:20;2.10;;;1.70;;
37047;SDS011;23227;48.780;9.210;2024-01-30T11:30:23;1.80;;;1.47;;
37047;SDS011;23227;48.780;9.210;2024-01-30T11:33:28;2.73;;;1.63;;
37047;SDS011;23227;48.780;9.210;2024-01-30T11:36:34;1.90;;;1.70;;
37047;SDS011;23227;48.780;9.210;2024-01-30T11:39:38;2.60;;;1.70;;
37047;SDS011;23227;48.780;9.210;2024-01-30T11:42:42;3.33;;;1.70;;
37047;SDS011;23227;48.780;9.210;2024-01-30T11:48:49;2.20;;;1.70;;
37047;SDS011;23227;48.780;9.210;2024-01-30T11:51:52;2.20;;;1.47;;
37047;SDS011;23227;48.780;9.210;2024-01-30T11:54:55;2.00;;;1.60;;
37047;SDS011;23227;48.780;9.210;2024-01-30T11:57:58;2.42;;;1.70;;
37047;SDS011;23227;48.780;9.210;2024-01-30T12:04:05;1.67;;;1.23;;
37047;SDS011;23227;48.780;9.210;2024-01-30T12:07:11;1.97;;;1.40;;
37047;SDS011;23227;48.780;9.210;2024-01-30T12:10:14;2.08;;;1.63;;
37047;SDS011;23227;48.780;9.210;2024-01-30T12:13:17;2.27;;;1.70;;
37047;SDS011;23227;48.780;9.210;2024-01-30T12:16:20;2.25;;;1.65;;
37047;SDS011;23227;48.780;9.210;2024-01-30T12:19:24;2.83;;;1.73;;
37047;SDS011;23227;48.780;9.210;2024-01-30T12:22:27;1.70;;;1.50;;
37047;SDS011;23227;48.780;9.210;2024-01-30T12:25:30;2.08;;;1.48;;
37047;SDS011;23227;48.780;9.210;2024-01-30T12:28:33;1.80;;;1.47;;
37047;SDS011;23227;48.780;9.210;2024-01-30T12:31:36;1.38;;;1.27;;
37047;SDS011;23227;48.780;9.210;2024-01-30T12:34:41;2.30;;;1.65;;
37047;SDS011;23227;48.780;9.210;2024-01-30T12:37:57;1.97;;;1.50;;
37047;SDS011;23227;48.780;9.210;2024-01-30T12:41:00;2.42;;;1.60;;
37047;SDS011;23227;48.780;9.210;2024-01-30T12:44:02;2.10;;;1.50;;
37047;SDS011;23227;48.780;9.210;2024-01-30T12:47:05;1.65;;;1.40;;
37047;SDS011;23227;48.780;9.210;2024-01-30T12:50:09;1.98;;;1.30;;
37047;SDS011;23227;48.780;9.210;2024-01-30T12:53:13;1.53;;;1.27;;
37047;SDS011;23227;48.780;9.210;2024-01-30T12:56:16;2.08;;;1.45;;
37047;SDS011;23227;48.780;9.210;2024-01-30T12:59:18;2.45;;;1.63;;
37047;SDS011;23227;48.780;9.210;2024-01-30T13:02:21;2.47;;;1.58;;
37047;SDS011;23227;48.780;9.210;2024-01-30T13:08:28;2.30;;;1.40;;
37047;SDS011;23227;48.780;9.210;2024-01-30T13:11:31;2.15;;;1.50;;
37047;SDS011;23227;48.780;9.210;2024-01-30T13:14:33;1.92;;;1.40;;
37047;SDS011;23227;48.780;9.210;2024-01-30T13:17:36;1.73;;;1.33;;
37047;SDS011;23227;48.780;9.210;2024-01-30T13:20:40;1.95;;;1.35;;
37047;SDS011;23227;48.780;9.210;2024-01-30T13:23:43;2.07;;;1.40;;
37047;SDS011;23227;48.780;9.210;2024-01-30T13:26:46;2.50;;;1.40;;
37047;SDS011;23227;48.780;9.210;2024-01-30T13:29:49;1.58;;;1.42;;
37047;SDS011;23227;48.780;9.210;2024-01-30T13:32:51;1.80;;;1.48;;
37047;SDS011;23227;48.780;9.210;2024-01-30T13:35:56;2.17;;;1.60;;
37047;SDS011;23227;48.780;9.210;2024-01-30T13:39:00;1.77;;;1.60;;
37047;SDS011;23227;48.780;9.210;2024-01-30T13:42:02;2.08;;;1.52;;
37047;SDS011;23227;48.780;9.210;2024-01-30T13:45:05;1.90;;;1.53;;
37047;SDS011;23227;48.780;9.210;2024-01-30T13:48:11;1.83;;;1.37;;
37047;SDS011;23227;48.780;9.210;2024-01-30T13:51:15;2.05;;;1.17;;
37047;SDS011;23227;48.780;9.210;2024-01-30T13:54:18;2.20;;;1.50;;
37047;SDS011;23227;48.780;9.210;2024-01-30T13:57:21;1.73;;;1.55;;
37047;SDS011;23227;48.780;9.210;2024-01-30T14:00:24;1.63;;;1.27;;
37047;SDS011;23227;48.780;9.210;2024-01-30T14:03:27;1.60;;;1.40;;
37047;SDS011;23227;48.780;9.210;2024-01-30T14:06:31;1.90;;;1.10;;
37047;SDS011;23227;48.780;9.210;2024-01-30T14:09:34;1.83;;;1.30;;
37047;SDS011;23227;48.780;9.210;2024-01-30T14:15:40;1.47;;;1.37;;
37047;SDS011;23227;48.780;9.210;2024-01-30T14:18:42;1.92;;;1.40;;
37047;SDS011;23227;48.780;9.210;2024-01-30T14:21:46;1.42;;;1.30;;
37047;SDS011;23227;48.780;9.210;2024-01-30T14:24:49;1.67;;;1.30;;
37047;SDS011;23227;48.780;9.210;2024-01-30T14:27:52;2.10;;;1.42;;
37047;SDS011;23227;48.780;9.210;2024-01-30T14:30:54;2.30;;;1.30;;
37047;SDS011;23227;48.780;9.210;2024-01-30T14:33:58;2.93;;;1.60;;
37047;SDS011;23227;48.780;9.210;2024-01-30T14:37:02;1.90;;;1.20;;
37047;SDS011;23227;48.780;9.210;2024-01-30T14:40:06;1.50;;;1.40;;
37047;SDS011;23227;48.780;9.210;2024-01-30T14:43:09;1.67;;;1.40;;
37047;SDS011;23227;48.780;9.210;2024-01-30T14:46:12;1.58;;;1.35;;
37047;SDS011;23227;48.780;9.210;2024-01-30T14:49:15;1.83;;;1.45;;
37047;SDS011;23227;48.780;9.210;2024-01-30T14:55:22;1.23;;;1.00;;
37047;SDS011;23227;48.780;9.210;2024-01-30T14:58:25;1.60;;;1.30;;
37047;SDS011;23227;48.780;9.210;2024-01-30T15:01:28;1.50;;;1.08;;
37047;SDS011;23227;48.780;9.210;2024-01-30T15:04:31;1.90;;;1.48;;
37047;SDS011;23227;48.780;9.210;2024-01-30T15:10:41;1.70;;;1.13;;
37047;SDS011;23227;48.780;9.210;2024-01-30T15:13:43;1.65;;;1.23;;
37047;SDS011;23227;48.780;9.210;2024-01-30T15:16:46;1.50;;;1.23;;
37047;SDS011;23227;48.780;9.210;2024-01-30T15:19:49;1.52;;;1.20;;
37047;SDS011;23227;48.780;9.210;2024-01-30T15:22:54;1.50;;;1.30;;
37047;SDS011;23227;48.780;9.210;2024-01-30T15:25:56;2.00;;;1.40;;
37047;SDS011;23227;48.780;9.210;2024-01-30T15:28:59;1.85;;;1.33;;
37047;SDS011;23227;48.780;9.210;2024-01-30T15:32:02;1.25;;;1.15;;
37047;SDS011;23227;48.780;9.210;2024-01-30T15:38:09;1.30;;;1.15;;
37047;SDS011;23227;48.780;9.210;2024-01-30T15:41:12;1.53;;;1.23;;
37047;SDS011;23227;48.780;9.210;2024-01-30T15:44:15;1.85;;;1.42;;
37047;SDS011;23227;48.780;9.210;2024-01-30T15:47:18;1.42;;;1.20;;
37047;SDS011;23227;48.780;9.210;2024-01-30T15:50:20;1.90;;;1.17;;
37047;SDS011;23227;48.780;9.210;2024-01-30T15:53:25;1.97;;;1.30;;
37047;SDS011;23227;48.780;9.210;2024-01-30T15:56:28;1.67;;;1.30;;
37047;SDS011;23227;48.780;9.210;2024-01-30T15:59:31;1.85;;;0.95;;
37047;SDS011;23227;48.780;9.210;2024-01-30T16:02:34;1.93;;;1.50;;
37047;SDS011;23227;48.780;9.210;2024-01-30T16:05:37;1.58;;;1.27;;
37047;SDS011;23227;48.780;9.210;2024-01-30T16:08:41;1.63;;;1.00;;
37047;SDS011;23227;48.780;9.210;2024-01-30T16:11:44;1.80;;;1.30;;
37047;SDS011;23227;48.780;9.210;2024-01-30T16:14:47;1.50;;;1.10;;
37047;SDS011;23227;48.780;9.210;2024-01-30T16:17:49;1.48;;;1.05;;
37047;SDS011;23227;48.780;9.210;2024-01-30T16:20:52;1.77;;;1.30;;
37047;SDS011;23227;48.780;9.210;2024-01-30T16:23:56;1.17;;;1.08;;
37047;SDS011;23227;48.780;9.210;2024-01-30T16:26:59;1.60;;;1.03;;
37047;SDS011;23227;48.780;9.210;2024-01-30T16:30:03;1.77;;;1.40;;
37047;SDS011;23227;48.780;9.210;2024-01-30T16:33:06;1.63;;;1.10;;
37047;SDS011;23227;48.780;9.210;2024-01-30T16:36:09;1.30;;;1.20;;
37047;SDS011;23227;48.780;9.210;2024-01-30T16:39:13;1.58;;;1.30;;
37047;SDS011;23227;48.780;9.210;2024-01-30T16:42:16;2.03;;;1.33;;
37047;SDS011;23227;48.780;9.210;2024-01-30T16:45:19;1.60;;;1.37;;
37047;SDS011;23227;48.780;9.210;2024-01-30T16:48:22;1.98;;;1.35;;
37047;SDS011;23227;48.780;9.210;2024-01-30T16:51:25;3.38;;;1.35;;
37047;SDS011;23227;48.780;9.210;2024-01-30T16:54:29;1.88;;;1.30;;
37047;SDS011;23227;48.780;9.210;2024-01-30T16:57:32;1.30;;;1.10;;
37047;SDS011;23227;48.780;9.210;2024-01-30T17:00:37;1.30;;;1.20;;
37047;SDS011;23227;48.780;9.210;2024-01-30T17:03:39;1.73;;;1.30;;
37047;SDS011;23227;48.780;9.210;2024-01-30T17:09:47;1.90;;;1.47;;
37047;SDS011;23227;48.780;9.210;2024-01-30T17:12:49;1.40;;;1.30;;
37047;SDS011;23227;48.780;9.210;2024-01-30T17:15:52;1.67;;;1.30;;
37047;SDS011;23227;48.780;9.210;2024-01-30T17:18:55;1.30;;;1.13;;
37047;SDS011;23227;48.780;9.210;2024-01-30T17:21:59;1.93;;;1.40;;
37047;SDS011;23227;48.780;9.210;2024-01-30T17:25:03;1.17;;;1.07;;
37047;SDS011;23227;48.780;9.210;2024-01-30T17:28:06;1.47;;;1.10;;
37047;SDS011;23227;48.780;9.210;2024-01-30T17:31:11;1.43;;;1.20;;
37047;SDS011;23227;48.780;9.210;2024-01-30T17:34:13;2.72;;;1.60;;
37047;SDS011;23227;48.780;9.210;2024-01-30T17:37:16;1.50;;;1.23;;
37047;SDS011;23227;48.780;9.210;2024-01-30T17:40:20;1.42;;;1.20;;
37047;SDS011;23227;48.780;9.210;2024-01-30T17:43:23;1.20;;;1.00;;
37047;SDS011;23227;48.780;9.210;2024-01-30T17:49:28;1.37;;;1.20;;
37047;SDS011;23227;48.780;9.210;2024-01-30T17:52:31;2.10;;;1.10;;
37047;SDS011;23227;48.780;9.210;2024-01-30T17:55:36;1.73;;;1.15;;
37047;SDS011;23227;48.780;9.210;2024-01-30T17:58:38;2.03;;;1.17;;
37047;SDS011;23227;48.780;9.210;2024-01-30T18:01:45;1.70;;;1.20;;
37047;SDS011;23227;48.780;9.210;2024-01-30T18:04:48;2.63;;;1.30;;
37047;SDS011;23227;48.780;9.210;2024-01-30T18:07:51;1.40;;;1.20;;
37047;SDS011;23227;48.780;9.210;2024-01-30T18:10:55;1.67;;;1.20;;
37047;SDS011;23227;48.780;9.210;2024-01-30T18:14:22;1.97;;;1.23;;
37047;SDS011;23227;48.780;9.210;2024-01-30T18:17:24;1.52;;;1.23;;
37047;SDS011;23227;48.780;9.210;2024-01-30T18:20:27;2.05;;;1.38;;
37047;SDS011;23227;48.780;9.210;2024-01-30T18:23:30;1.48;;;1.20;;
37047;SDS011;23227;48.780;9.210;2024-01-30T18:26:34;2.72;;;1.38;;
37047;SDS011;23227;48.780;9.210;2024-01-30T18:29:37;1.77;;;1.20;;
37047;SDS011;23227;48.780;9.210;2024-01-30T18:32:40;2.30;;;1.50;;
37047;SDS011;23227;48.780;9.210;2024-01-30T18:35:43;2.15;;;1.40;;
37047;SDS011;23227;48.780;9.210;2024-01-30T18:38:46;9.10;;;3.95;;
37047;SDS011;23227;48.780;9.210;2024-01-30T18:41:50;13.77;;;5.50;;
37047;SDS011;23227;48.780;9.210;2024-01-30T18:44:54;7.63;;;4.37;;
37047;SDS011;23227;48.780;9.210;2024-01-30T18:47:57;7.88;;;3.28;;
37047;SDS011;23227;48.780;9.210;2024-01-30T18:50:59;9.07;;;3.25;;
37047;SDS011;23227;48.780;9.210;2024-01-30T18:54:02;5.80;;;3.15;;
37047;SDS011;23227;48.780;9.210;2024-01-30T18:57:06;8.00;;;3.17;;
37047;SDS011;23227;48.780;9.210;2024-01-30T19:00:09;6.00;;;3.43;;
37047;SDS011;23227;48.780;9.210;2024-01-30T19:03:13;8.63;;;3.43;;
37047;SDS011;23227;48.780;9.210;2024-01-30T19:06:17;6.73;;;2.97;;
37047;SDS011;23227;48.780;9.210;2024-01-30T19:09:20;5.15;;;2.70;;
37047;SDS011;23227;48.780;9.210;2024-01-30T19:12:25;6.07;;;3.10;;